sensor_id;sensor_type;location;lat;lon;timestamp;P1;durP1;ratioP1;P2;durP2;ratioP2
40591;SDS011;26301;42.832;23.918;2022-10-31T00:01:14;6.20;;;1.92;;
40591;SDS011;26301;42.832;23.918;2022-10-31T00:03:44;5.15;;;1.90;;
40591;SDS011;26301;42.832;23.918;2022-10-31T00:06:10;3.35;;;1.65;;
40591;SDS011;26301;42.832;23.918;2022-10-31T00:08:36;6.43;;;1.70;;
40591;SDS011;26301;42.832;23.918;2022-10-31T00:11:02;5.22;;;1.70;;
40591;SDS011;26301;42.832;23.918;2022-10-31T00:13:28;5.78;;;2.10;;
40591;SDS011;26301;42.832;23.918;2022-10-31T00:15:53;5.05;;;2.10;;
40591;SDS011;26301;42.832;23.918;2022-10-31T00:18:19;4.55;;;1.92;;
40591;SDS011;26301;42.832;23.918;2022-10-31T00:20:45;4.03;;;1.80;;
40591;SDS011;26301;42.832;23.918;2022-10-31T00:23:11;3.80;;;1.98;;
40591;SDS011;26301;42.832;23.918;2022-10-31T00:25:37;4.80;;;2.25;;
40591;SDS011;26301;42.832;23.918;2022-10-31T00:28:05;4.07;;;1.95;;
40591;SDS011;26301;42.832;23.918;2022-10-31T00:30:32;5.25;;;1.98;;
40591;SDS011;26301;42.832;23.918;2022-10-31T00:32:58;5.30;;;1.95;;
40591;SDS011;26301;42.832;23.918;2022-10-31T00:35:24;7.05;;;1.80;;
40591;SDS011;26301;42.832;23.918;2022-10-31T00:37:51;4.68;;;1.70;;
40591;SDS011;26301;42.832;23.918;2022-10-31T00:40:17;4.70;;;2.00;;
40591;SDS011;26301;42.832;23.918;2022-10-31T00:42:42;2.92;;;1.90;;
40591;SDS011;26301;42.832;23.918;2022-10-31T00:45:09;4.32;;;1.63;;
40591;SDS011;26301;42.832;23.918;2022-10-31T00:47:35;3.80;;;1.70;;
40591;SDS011;26301;42.832;23.918;2022-10-31T00:50:01;5.25;;;2.45;;
40591;SDS011;26301;42.832;23.918;2022-10-31T00:52:28;6.35;;;1.85;;
40591;SDS011;26301;42.832;23.918;2022-10-31T00:54:54;5.05;;;2.47;;
40591;SDS011;26301;42.832;23.918;2022-10-31T00:57:19;5.22;;;2.00;;
40591;SDS011;26301;42.832;23.918;2022-10-31T00:59:45;4.70;;;2.13;;
40591;SDS011;26301;42.832;23.918;2022-10-31T01:02:10;4.80;;;2.60;;
40591;SDS011;26301;42.832;23.918;2022-10-31T01:04:36;4.78;;;2.35;;
40591;SDS011;26301;42.832;23.918;2022-10-31T01:07:02;6.03;;;1.88;;
40591;SDS011;26301;42.832;23.918;2022-10-31T01:09:28;3.80;;;2.10;;
40591;SDS011;26301;42.832;23.918;2022-10-31T01:11:54;7.13;;;3.65;;
40591;SDS011;26301;42.832;23.918;2022-10-31T01:14:19;7.50;;;2.22;;
40591;SDS011;26301;42.832;23.918;2022-10-31T01:16:45;8.07;;;2.33;;
40591;SDS011;26301;42.832;23.918;2022-10-31T01:19:11;4.30;;;2.25;;
40591;SDS011;26301;42.832;23.918;2022-10-31T01:21:37;3.72;;;2.20;;
40591;SDS011;26301;42.832;23.918;2022-10-31T01:24:03;6.63;;;2.13;;
40591;SDS011;26301;42.832;23.918;2022-10-31T01:26:29;5.13;;;2.53;;
40591;SDS011;26301;42.832;23.918;2022-10-31T01:28:57;4.50;;;2.28;;
40591;SDS011;26301;42.832;23.918;2022-10-31T01:31:28;8.23;;;2.92;;
40591;SDS011;26301;42.832;23.918;2022-10-31T01:33:56;5.32;;;2.42;;
40591;SDS011;26301;42.832;23.918;2022-10-31T01:38:50;4.07;;;2.13;;
40591;SDS011;26301;42.832;23.918;2022-10-31T01:41:18;4.45;;;2.17;;
40591;SDS011;26301;42.832;23.918;2022-10-31T01:43:48;5.45;;;2.35;;
40591;SDS011;26301;42.832;23.918;2022-10-31T01:46:38;8.43;;;2.40;;
40591;SDS011;26301;42.832;23.918;2022-10-31T01:49:05;11.27;;;2.65;;
40591;SDS011;26301;42.832;23.918;2022-10-31T01:51:39;6.47;;;1.95;;
40591;SDS011;26301;42.832;23.918;2022-10-31T01:54:12;6.47;;;2.45;;
40591;SDS011;26301;42.832;23.918;2022-10-31T01:56:42;3.08;;;1.70;;
40591;SDS011;26301;42.832;23.918;2022-10-31T01:59:13;5.63;;;2.05;;
40591;SDS011;26301;42.832;23.918;2022-10-31T02:01:43;6.50;;;2.08;;
40591;SDS011;26301;42.832;23.918;2022-10-31T02:04:09;9.23;;;2.50;;
40591;SDS011;26301;42.832;23.918;2022-10-31T02:06:44;4.78;;;2.05;;
40591;SDS011;26301;42.832;23.918;2022-10-31T02:09:15;4.22;;;2.17;;
40591;SDS011;26301;42.832;23.918;2022-10-31T02:11:42;6.50;;;2.25;;
40591;SDS011;26301;42.832;23.918;2022-10-31T02:14:09;4.85;;;2.50;;
40591;SDS011;26301;42.832;23.918;2022-10-31T02:16:35;4.10;;;1.90;;
40591;SDS011;26301;42.832;23.918;2022-10-31T02:19:01;9.27;;;2.10;;
40591;SDS011;26301;42.832;23.918;2022-10-31T02:21:32;4.57;;;2.40;;
40591;SDS011;26301;42.832;23.918;2022-10-31T02:24:29;7.18;;;2.03;;
40591;SDS011;26301;42.832;23.918;2022-10-31T02:27:16;9.05;;;2.17;;
40591;SDS011;26301;42.832;23.918;2022-10-31T02:30:21;5.10;;;2.53;;
40591;SDS011;26301;42.832;23.918;2022-10-31T02:41:20;10.98;;;3.22;;
40591;SDS011;26301;42.832;23.918;2022-10-31T02:43:58;5.38;;;3.05;;
40591;SDS011;26301;42.832;23.918;2022-10-31T02:46:47;8.48;;;2.33;;
40591;SDS011;26301;42.832;23.918;2022-10-31T02:49:21;5.43;;;2.53;;
40591;SDS011;26301;42.832;23.918;2022-10-31T02:51:48;4.30;;;2.10;;
40591;SDS011;26301;42.832;23.918;2022-10-31T02:54:24;5.22;;;2.15;;
40591;SDS011;26301;42.832;23.918;2022-10-31T02:56:56;7.43;;;2.33;;
40591;SDS011;26301;42.832;23.918;2022-10-31T02:59:26;7.80;;;2.05;;
40591;SDS011;26301;42.832;23.918;2022-10-31T03:10:15;5.57;;;2.38;;
40591;SDS011;26301;42.832;23.918;2022-10-31T03:15:34;3.58;;;2.17;;
40591;SDS011;26301;42.832;23.918;2022-10-31T03:18:06;5.90;;;2.20;;
40591;SDS011;26301;42.832;23.918;2022-10-31T03:23:29;7.20;;;2.33;;
40591;SDS011;26301;42.832;23.918;2022-10-31T03:25:57;7.60;;;2.53;;
40591;SDS011;26301;42.832;23.918;2022-10-31T03:28:29;7.50;;;2.33;;
40591;SDS011;26301;42.832;23.918;2022-10-31T03:31:01;4.10;;;2.33;;
40591;SDS011;26301;42.832;23.918;2022-10-31T03:33:30;5.03;;;2.50;;
40591;SDS011;26301;42.832;23.918;2022-10-31T03:36:00;5.38;;;2.38;;
40591;SDS011;26301;42.832;23.918;2022-10-31T03:38:29;5.45;;;2.47;;
40591;SDS011;26301;42.832;23.918;2022-10-31T03:40:57;6.80;;;2.58;;
40591;SDS011;26301;42.832;23.918;2022-10-31T03:43:26;5.60;;;3.00;;
40591;SDS011;26301;42.832;23.918;2022-10-31T03:45:57;9.60;;;4.97;;
40591;SDS011;26301;42.832;23.918;2022-10-31T03:48:24;4.82;;;3.10;;
40591;SDS011;26301;42.832;23.918;2022-10-31T03:53:32;4.45;;;2.75;;
40591;SDS011;26301;42.832;23.918;2022-10-31T03:56:16;7.20;;;3.03;;
40591;SDS011;26301;42.832;23.918;2022-10-31T03:59:21;9.00;;;2.90;;
40591;SDS011;26301;42.832;23.918;2022-10-31T04:01:44;5.05;;;2.50;;
40591;SDS011;26301;42.832;23.918;2022-10-31T04:04:15;6.55;;;2.40;;
40591;SDS011;26301;42.832;23.918;2022-10-31T04:06:41;4.47;;;2.80;;
40591;SDS011;26301;42.832;23.918;2022-10-31T04:09:10;6.18;;;3.05;;
40591;SDS011;26301;42.832;23.918;2022-10-31T04:11:39;7.30;;;2.88;;
40591;SDS011;26301;42.832;23.918;2022-10-31T04:14:09;6.40;;;3.03;;
40591;SDS011;26301;42.832;23.918;2022-10-31T04:16:36;6.72;;;2.80;;
40591;SDS011;26301;42.832;23.918;2022-10-31T04:19:07;11.57;;;3.10;;
40591;SDS011;26301;42.832;23.918;2022-10-31T04:21:33;8.02;;;2.95;;
40591;SDS011;26301;42.832;23.918;2022-10-31T04:23:59;11.05;;;2.67;;
40591;SDS011;26301;42.832;23.918;2022-10-31T04:26:24;5.55;;;2.70;;
40591;SDS011;26301;42.832;23.918;2022-10-31T04:28:50;6.78;;;2.50;;
40591;SDS011;26301;42.832;23.918;2022-10-31T04:31:18;7.65;;;2.58;;
40591;SDS011;26301;42.832;23.918;2022-10-31T04:33:45;5.78;;;2.63;;
40591;SDS011;26301;42.832;23.918;2022-10-31T04:36:11;7.72;;;2.70;;
40591;SDS011;26301;42.832;23.918;2022-10-31T04:38:36;9.80;;;3.53;;
40591;SDS011;26301;42.832;23.918;2022-10-31T04:41:02;6.35;;;2.80;;
40591;SDS011;26301;42.832;23.918;2022-10-31T04:43:28;8.80;;;3.00;;
40591;SDS011;26301;42.832;23.918;2022-10-31T04:45:53;4.47;;;2.28;;
40591;SDS011;26301;42.832;23.918;2022-10-31T04:48:19;6.50;;;3.38;;
40591;SDS011;26301;42.832;23.918;2022-10-31T04:50:45;4.95;;;2.35;;
40591;SDS011;26301;42.832;23.918;2022-10-31T04:53:10;6.70;;;2.70;;
40591;SDS011;26301;42.832;23.918;2022-10-31T04:55:36;9.32;;;3.30;;
40591;SDS011;26301;42.832;23.918;2022-10-31T04:58:02;10.88;;;2.72;;
40591;SDS011;26301;42.832;23.918;2022-10-31T05:00:28;8.48;;;2.88;;
40591;SDS011;26301;42.832;23.918;2022-10-31T05:02:55;5.57;;;2.40;;
40591;SDS011;26301;42.832;23.918;2022-10-31T05:05:28;4.50;;;2.63;;
40591;SDS011;26301;42.832;23.918;2022-10-31T05:07:55;7.38;;;3.00;;
40591;SDS011;26301;42.832;23.918;2022-10-31T05:10:22;6.50;;;3.28;;
40591;SDS011;26301;42.832;23.918;2022-10-31T05:12:53;7.68;;;3.15;;
40591;SDS011;26301;42.832;23.918;2022-10-31T05:15:23;6.30;;;3.08;;
40591;SDS011;26301;42.832;23.918;2022-10-31T05:17:50;8.20;;;3.20;;
40591;SDS011;26301;42.832;23.918;2022-10-31T05:20:17;8.50;;;3.50;;
40591;SDS011;26301;42.832;23.918;2022-10-31T05:22:44;7.57;;;3.67;;
40591;SDS011;26301;42.832;23.918;2022-10-31T05:25:11;10.70;;;3.35;;
40591;SDS011;26301;42.832;23.918;2022-10-31T05:27:43;12.82;;;4.00;;
40591;SDS011;26301;42.832;23.918;2022-10-31T05:30:16;9.18;;;3.75;;
40591;SDS011;26301;42.832;23.918;2022-10-31T05:32:44;7.18;;;3.55;;
40591;SDS011;26301;42.832;23.918;2022-10-31T05:35:15;9.63;;;3.53;;
40591;SDS011;26301;42.832;23.918;2022-10-31T05:37:46;7.20;;;3.42;;
40591;SDS011;26301;42.832;23.918;2022-10-31T05:40:12;6.55;;;3.60;;
40591;SDS011;26301;42.832;23.918;2022-10-31T05:42:39;7.32;;;3.33;;
40591;SDS011;26301;42.832;23.918;2022-10-31T05:45:07;9.38;;;4.22;;
40591;SDS011;26301;42.832;23.918;2022-10-31T05:47:34;8.15;;;3.08;;
40591;SDS011;26301;42.832;23.918;2022-10-31T05:50:00;7.78;;;2.97;;
40591;SDS011;26301;42.832;23.918;2022-10-31T05:52:25;5.07;;;3.15;;
40591;SDS011;26301;42.832;23.918;2022-10-31T05:54:51;5.07;;;3.05;;
40591;SDS011;26301;42.832;23.918;2022-10-31T05:57:17;4.20;;;2.88;;
40591;SDS011;26301;42.832;23.918;2022-10-31T05:59:42;6.03;;;3.47;;
40591;SDS011;26301;42.832;23.918;2022-10-31T06:02:08;8.52;;;3.10;;
40591;SDS011;26301;42.832;23.918;2022-10-31T06:04:35;5.93;;;3.58;;
40591;SDS011;26301;42.832;23.918;2022-10-31T06:07:01;8.75;;;3.92;;
40591;SDS011;26301;42.832;23.918;2022-10-31T06:09:26;6.18;;;3.95;;
40591;SDS011;26301;42.832;23.918;2022-10-31T06:11:52;7.35;;;3.17;;
40591;SDS011;26301;42.832;23.918;2022-10-31T06:14:18;7.40;;;3.38;;
40591;SDS011;26301;42.832;23.918;2022-10-31T06:16:43;23.00;;;3.83;;
40591;SDS011;26301;42.832;23.918;2022-10-31T06:19:09;7.90;;;3.25;;
40591;SDS011;26301;42.832;23.918;2022-10-31T06:21:35;9.82;;;3.58;;
40591;SDS011;26301;42.832;23.918;2022-10-31T06:24:00;5.95;;;4.13;;
40591;SDS011;26301;42.832;23.918;2022-10-31T06:26:26;6.88;;;3.67;;
40591;SDS011;26301;42.832;23.918;2022-10-31T06:31:19;7.80;;;3.35;;
40591;SDS011;26301;42.832;23.918;2022-10-31T06:33:45;8.05;;;4.00;;
40591;SDS011;26301;42.832;23.918;2022-10-31T06:36:10;8.60;;;3.60;;
40591;SDS011;26301;42.832;23.918;2022-10-31T06:38:36;5.32;;;3.08;;
40591;SDS011;26301;42.832;23.918;2022-10-31T06:41:02;4.95;;;2.97;;
40591;SDS011;26301;42.832;23.918;2022-10-31T06:43:29;7.30;;;2.90;;
40591;SDS011;26301;42.832;23.918;2022-10-31T06:45:56;6.80;;;3.25;;
40591;SDS011;26301;42.832;23.918;2022-10-31T06:48:22;6.07;;;3.03;;
40591;SDS011;26301;42.832;23.918;2022-10-31T06:50:47;7.10;;;2.88;;
40591;SDS011;26301;42.832;23.918;2022-10-31T06:53:13;6.35;;;2.83;;
40591;SDS011;26301;42.832;23.918;2022-10-31T06:55:39;8.30;;;2.95;;
40591;SDS011;26301;42.832;23.918;2022-10-31T06:58:06;4.93;;;3.03;;
40591;SDS011;26301;42.832;23.918;2022-10-31T07:00:33;5.70;;;2.65;;
40591;SDS011;26301;42.832;23.918;2022-10-31T07:03:03;23.30;;;16.63;;
40591;SDS011;26301;42.832;23.918;2022-10-31T07:05:35;5.57;;;3.72;;
40591;SDS011;26301;42.832;23.918;2022-10-31T07:08:02;4.35;;;2.67;;
40591;SDS011;26301;42.832;23.918;2022-10-31T07:10:30;6.60;;;3.00;;
40591;SDS011;26301;42.832;23.918;2022-10-31T07:12:58;7.43;;;3.03;;
40591;SDS011;26301;42.832;23.918;2022-10-31T07:15:25;5.40;;;2.58;;
40591;SDS011;26301;42.832;23.918;2022-10-31T07:17:53;10.65;;;2.50;;
40591;SDS011;26301;42.832;23.918;2022-10-31T07:20:19;6.68;;;2.63;;
40591;SDS011;26301;42.832;23.918;2022-10-31T07:22:45;6.93;;;2.38;;
40591;SDS011;26301;42.832;23.918;2022-10-31T07:25:11;7.55;;;2.65;;
40591;SDS011;26301;42.832;23.918;2022-10-31T07:27:40;7.50;;;2.70;;
40591;SDS011;26301;42.832;23.918;2022-10-31T07:30:08;5.47;;;2.15;;
40591;SDS011;26301;42.832;23.918;2022-10-31T07:32:41;10.43;;;3.10;;
40591;SDS011;26301;42.832;23.918;2022-10-31T07:35:08;6.18;;;3.08;;
40591;SDS011;26301;42.832;23.918;2022-10-31T07:37:40;8.57;;;2.50;;
40591;SDS011;26301;42.832;23.918;2022-10-31T07:40:06;5.15;;;2.30;;
40591;SDS011;26301;42.832;23.918;2022-10-31T07:42:36;8.98;;;2.60;;
40591;SDS011;26301;42.832;23.918;2022-10-31T07:45:07;8.65;;;2.90;;
40591;SDS011;26301;42.832;23.918;2022-10-31T07:47:47;4.57;;;2.28;;
40591;SDS011;26301;42.832;23.918;2022-10-31T07:50:15;5.97;;;2.40;;
40591;SDS011;26301;42.832;23.918;2022-10-31T07:52:42;5.35;;;2.38;;
40591;SDS011;26301;42.832;23.918;2022-10-31T07:55:08;5.53;;;2.60;;
40591;SDS011;26301;42.832;23.918;2022-10-31T07:57:35;9.70;;;2.47;;
40591;SDS011;26301;42.832;23.918;2022-10-31T08:00:04;7.03;;;2.75;;
40591;SDS011;26301;42.832;23.918;2022-10-31T08:02:30;7.72;;;3.17;;
40591;SDS011;26301;42.832;23.918;2022-10-31T08:04:56;7.97;;;2.30;;
40591;SDS011;26301;42.832;23.918;2022-10-31T08:07:24;9.27;;;2.63;;
40591;SDS011;26301;42.832;23.918;2022-10-31T08:09:50;9.38;;;2.70;;
40591;SDS011;26301;42.832;23.918;2022-10-31T08:12:16;11.43;;;3.17;;
40591;SDS011;26301;42.832;23.918;2022-10-31T08:14:42;22.50;;;4.20;;
40591;SDS011;26301;42.832;23.918;2022-10-31T08:17:07;15.48;;;4.00;;
40591;SDS011;26301;42.832;23.918;2022-10-31T08:19:33;10.35;;;3.05;;
40591;SDS011;26301;42.832;23.918;2022-10-31T08:21:58;7.30;;;3.00;;
40591;SDS011;26301;42.832;23.918;2022-10-31T08:24:25;7.35;;;3.08;;
40591;SDS011;26301;42.832;23.918;2022-10-31T08:26:51;6.70;;;3.15;;
40591;SDS011;26301;42.832;23.918;2022-10-31T08:29:17;3.70;;;1.90;;
40591;SDS011;26301;42.832;23.918;2022-10-31T08:31:43;7.55;;;2.60;;
40591;SDS011;26301;42.832;23.918;2022-10-31T08:34:09;4.28;;;2.10;;
40591;SDS011;26301;42.832;23.918;2022-10-31T08:36:38;7.22;;;2.00;;
40591;SDS011;26301;42.832;23.918;2022-10-31T08:39:06;7.70;;;2.15;;
40591;SDS011;26301;42.832;23.918;2022-10-31T08:41:32;6.85;;;2.55;;
40591;SDS011;26301;42.832;23.918;2022-10-31T08:43:58;8.63;;;2.20;;
40591;SDS011;26301;42.832;23.918;2022-10-31T08:46:23;4.63;;;2.10;;
40591;SDS011;26301;42.832;23.918;2022-10-31T08:48:49;8.85;;;2.50;;
40591;SDS011;26301;42.832;23.918;2022-10-31T08:51:15;6.68;;;2.33;;
40591;SDS011;26301;42.832;23.918;2022-10-31T08:53:40;5.68;;;2.28;;
40591;SDS011;26301;42.832;23.918;2022-10-31T08:56:06;4.95;;;2.20;;
40591;SDS011;26301;42.832;23.918;2022-10-31T08:58:32;9.43;;;2.88;;
40591;SDS011;26301;42.832;23.918;2022-10-31T09:00:58;6.70;;;2.28;;
40591;SDS011;26301;42.832;23.918;2022-10-31T09:03:26;7.35;;;2.20;;
40591;SDS011;26301;42.832;23.918;2022-10-31T09:05:55;4.22;;;2.00;;
40591;SDS011;26301;42.832;23.918;2022-10-31T09:08:22;4.30;;;1.85;;
40591;SDS011;26301;42.832;23.918;2022-10-31T09:10:48;5.70;;;2.15;;
40591;SDS011;26301;42.832;23.918;2022-10-31T09:13:15;5.05;;;2.08;;
40591;SDS011;26301;42.832;23.918;2022-10-31T09:15:43;4.18;;;1.80;;
40591;SDS011;26301;42.832;23.918;2022-10-31T09:18:10;5.05;;;1.88;;
40591;SDS011;26301;42.832;23.918;2022-10-31T09:20:38;6.57;;;2.15;;
40591;SDS011;26301;42.832;23.918;2022-10-31T09:23:18;6.88;;;2.17;;
40591;SDS011;26301;42.832;23.918;2022-10-31T09:25:47;5.22;;;2.05;;
40591;SDS011;26301;42.832;23.918;2022-10-31T09:28:15;7.75;;;2.25;;
40591;SDS011;26301;42.832;23.918;2022-10-31T09:30:45;8.07;;;2.40;;
40591;SDS011;26301;42.832;23.918;2022-10-31T09:33:12;5.90;;;1.80;;
40591;SDS011;26301;42.832;23.918;2022-10-31T09:35:39;5.88;;;1.85;;
40591;SDS011;26301;42.832;23.918;2022-10-31T09:38:06;6.47;;;2.22;;
40591;SDS011;26301;42.832;23.918;2022-10-31T09:40:37;5.93;;;2.15;;
40591;SDS011;26301;42.832;23.918;2022-10-31T09:43:12;7.80;;;1.92;;
40591;SDS011;26301;42.832;23.918;2022-10-31T09:51:20;5.15;;;1.90;;
40591;SDS011;26301;42.832;23.918;2022-10-31T09:56:31;7.43;;;1.92;;
40591;SDS011;26301;42.832;23.918;2022-10-31T09:59:01;8.35;;;2.08;;
40591;SDS011;26301;42.832;23.918;2022-10-31T10:01:30;7.15;;;1.83;;
40591;SDS011;26301;42.832;23.918;2022-10-31T10:04:14;4.95;;;2.05;;
40591;SDS011;26301;42.832;23.918;2022-10-31T10:07:02;5.82;;;1.70;;
40591;SDS011;26301;42.832;23.918;2022-10-31T10:09:37;4.97;;;1.85;;
40591;SDS011;26301;42.832;23.918;2022-10-31T10:12:16;8.10;;;1.85;;
40591;SDS011;26301;42.832;23.918;2022-10-31T10:15:06;8.98;;;1.80;;
40591;SDS011;26301;42.832;23.918;2022-10-31T10:17:59;3.72;;;1.42;;
40591;SDS011;26301;42.832;23.918;2022-10-31T10:30:13;5.13;;;1.35;;
40591;SDS011;26301;42.832;23.918;2022-10-31T10:32:52;5.30;;;1.52;;
40591;SDS011;26301;42.832;23.918;2022-10-31T10:35:33;4.78;;;1.67;;
40591;SDS011;26301;42.832;23.918;2022-10-31T10:38:12;7.93;;;1.80;;
40591;SDS011;26301;42.832;23.918;2022-10-31T10:40:42;8.45;;;2.42;;
40591;SDS011;26301;42.832;23.918;2022-10-31T10:43:19;8.23;;;1.70;;
40591;SDS011;26301;42.832;23.918;2022-10-31T10:48:57;7.05;;;1.52;;
40591;SDS011;26301;42.832;23.918;2022-10-31T10:52:24;5.50;;;1.60;;
40591;SDS011;26301;42.832;23.918;2022-10-31T11:00:31;6.70;;;1.70;;
40591;SDS011;26301;42.832;23.918;2022-10-31T11:03:00;4.78;;;1.67;;
40591;SDS011;26301;42.832;23.918;2022-10-31T11:05:33;3.50;;;1.38;;
40591;SDS011;26301;42.832;23.918;2022-10-31T11:08:02;6.18;;;1.75;;
40591;SDS011;26301;42.832;23.918;2022-10-31T11:10:29;8.65;;;1.88;;
40591;SDS011;26301;42.832;23.918;2022-10-31T11:15:52;5.35;;;1.80;;
40591;SDS011;26301;42.832;23.918;2022-10-31T11:18:22;6.47;;;2.75;;
40591;SDS011;26301;42.832;23.918;2022-10-31T11:20:58;4.25;;;1.58;;
40591;SDS011;26301;42.832;23.918;2022-10-31T11:23:26;6.47;;;1.88;;
40591;SDS011;26301;42.832;23.918;2022-10-31T11:28:24;4.38;;;1.80;;
40591;SDS011;26301;42.832;23.918;2022-10-31T11:30:54;5.93;;;1.75;;
40591;SDS011;26301;42.832;23.918;2022-10-31T11:35:54;7.10;;;1.88;;
40591;SDS011;26301;42.832;23.918;2022-10-31T11:38:21;6.90;;;1.55;;
40591;SDS011;26301;42.832;23.918;2022-10-31T11:40:53;6.63;;;1.88;;
40591;SDS011;26301;42.832;23.918;2022-10-31T11:43:20;6.57;;;1.73;;
40591;SDS011;26301;42.832;23.918;2022-10-31T11:45:50;5.25;;;1.58;;
40591;SDS011;26301;42.832;23.918;2022-10-31T11:48:17;5.75;;;1.60;;
40591;SDS011;26301;42.832;23.918;2022-10-31T11:50:48;4.85;;;1.55;;
40591;SDS011;26301;42.832;23.918;2022-10-31T11:53:27;7.05;;;1.85;;
40591;SDS011;26301;42.832;23.918;2022-10-31T11:58:35;7.30;;;1.83;;
40591;SDS011;26301;42.832;23.918;2022-10-31T12:01:01;6.70;;;1.77;;
40591;SDS011;26301;42.832;23.918;2022-10-31T12:06:18;5.53;;;1.50;;
40591;SDS011;26301;42.832;23.918;2022-10-31T12:08:51;6.85;;;1.60;;
40591;SDS011;26301;42.832;23.918;2022-10-31T12:14:15;7.72;;;1.70;;
40591;SDS011;26301;42.832;23.918;2022-10-31T12:26:08;7.90;;;1.75;;
40591;SDS011;26301;42.832;23.918;2022-10-31T12:37:21;5.47;;;1.52;;
40591;SDS011;26301;42.832;23.918;2022-10-31T12:43:06;5.65;;;1.88;;
40591;SDS011;26301;42.832;23.918;2022-10-31T12:45:57;5.22;;;1.60;;
40591;SDS011;26301;42.832;23.918;2022-10-31T12:51:14;7.03;;;2.27;;
40591;SDS011;26301;42.832;23.918;2022-10-31T12:54:05;12.98;;;2.03;;
40591;SDS011;26301;42.832;23.918;2022-10-31T12:57:06;6.22;;;1.60;;
40591;SDS011;26301;42.832;23.918;2022-10-31T13:04:46;3.95;;;1.50;;
40591;SDS011;26301;42.832;23.918;2022-10-31T13:07:20;6.05;;;1.95;;
40591;SDS011;26301;42.832;23.918;2022-10-31T13:10:01;6.25;;;1.60;;
40591;SDS011;26301;42.832;23.918;2022-10-31T13:12:34;4.03;;;1.45;;
40591;SDS011;26301;42.832;23.918;2022-10-31T13:15:03;6.85;;;1.45;;
40591;SDS011;26301;42.832;23.918;2022-10-31T13:17:38;6.53;;;1.42;;
40591;SDS011;26301;42.832;23.918;2022-10-31T13:20:14;5.97;;;1.80;;
40591;SDS011;26301;42.832;23.918;2022-10-31T13:22:42;6.00;;;1.67;;
40591;SDS011;26301;42.832;23.918;2022-10-31T13:25:19;8.00;;;2.10;;
40591;SDS011;26301;42.832;23.918;2022-10-31T13:30:30;9.88;;;2.25;;
40591;SDS011;26301;42.832;23.918;2022-10-31T13:46:46;6.22;;;2.25;;
40591;SDS011;26301;42.832;23.918;2022-10-31T13:51:50;3.90;;;1.67;;
40591;SDS011;26301;42.832;23.918;2022-10-31T13:54:31;5.75;;;1.90;;
40591;SDS011;26301;42.832;23.918;2022-10-31T13:56:59;8.88;;;1.90;;
40591;SDS011;26301;42.832;23.918;2022-10-31T13:59:28;4.78;;;1.77;;
40591;SDS011;26301;42.832;23.918;2022-10-31T14:02:00;4.25;;;1.60;;
40591;SDS011;26301;42.832;23.918;2022-10-31T14:07:07;9.85;;;2.08;;
40591;SDS011;26301;42.832;23.918;2022-10-31T14:15:33;5.00;;;1.45;;
40591;SDS011;26301;42.832;23.918;2022-10-31T14:17:55;5.63;;;1.42;;
40591;SDS011;26301;42.832;23.918;2022-10-31T14:20:34;11.48;;;2.40;;
40591;SDS011;26301;42.832;23.918;2022-10-31T14:28:42;4.72;;;1.63;;
40591;SDS011;26301;42.832;23.918;2022-10-31T14:33:52;5.07;;;1.65;;
40591;SDS011;26301;42.832;23.918;2022-10-31T14:36:23;6.85;;;1.58;;
40591;SDS011;26301;42.832;23.918;2022-10-31T14:44:23;6.45;;;1.35;;
40591;SDS011;26301;42.832;23.918;2022-10-31T14:52:16;10.20;;;3.30;;
40591;SDS011;26301;42.832;23.918;2022-10-31T14:54:45;7.70;;;2.60;;
40591;SDS011;26301;42.832;23.918;2022-10-31T14:57:20;9.13;;;2.30;;
40591;SDS011;26301;42.832;23.918;2022-10-31T14:59:53;14.10;;;4.68;;
40591;SDS011;26301;42.832;23.918;2022-10-31T15:02:27;16.80;;;6.22;;
40591;SDS011;26301;42.832;23.918;2022-10-31T15:04:59;34.47;;;15.18;;
40591;SDS011;26301;42.832;23.918;2022-10-31T15:07:27;31.55;;;11.80;;
40591;SDS011;26301;42.832;23.918;2022-10-31T15:10:06;32.78;;;13.25;;
40591;SDS011;26301;42.832;23.918;2022-10-31T15:12:44;27.30;;;10.13;;
40591;SDS011;26301;42.832;23.918;2022-10-31T15:15:14;27.05;;;9.48;;
40591;SDS011;26301;42.832;23.918;2022-10-31T15:17:45;20.38;;;5.68;;
40591;SDS011;26301;42.832;23.918;2022-10-31T15:20:18;10.43;;;2.30;;
40591;SDS011;26301;42.832;23.918;2022-10-31T15:22:46;12.80;;;3.67;;
40591;SDS011;26301;42.832;23.918;2022-10-31T15:25:17;8.95;;;3.17;;
40591;SDS011;26301;42.832;23.918;2022-10-31T15:27:45;14.52;;;4.32;;
40591;SDS011;26301;42.832;23.918;2022-10-31T15:30:22;9.57;;;4.32;;
40591;SDS011;26301;42.832;23.918;2022-10-31T15:32:52;9.93;;;2.85;;
40591;SDS011;26301;42.832;23.918;2022-10-31T15:35:36;8.32;;;4.00;;
40591;SDS011;26301;42.832;23.918;2022-10-31T15:38:02;11.60;;;5.25;;
40591;SDS011;26301;42.832;23.918;2022-10-31T15:40:28;19.52;;;7.55;;
40591;SDS011;26301;42.832;23.918;2022-10-31T15:45:26;19.65;;;8.18;;
40591;SDS011;26301;42.832;23.918;2022-10-31T15:47:59;25.30;;;9.35;;
40591;SDS011;26301;42.832;23.918;2022-10-31T15:50:30;15.73;;;6.30;;
40591;SDS011;26301;42.832;23.918;2022-10-31T15:53:26;13.55;;;4.72;;
40591;SDS011;26301;42.832;23.918;2022-10-31T15:55:57;17.88;;;5.22;;
40591;SDS011;26301;42.832;23.918;2022-10-31T15:58:26;14.98;;;5.18;;
40591;SDS011;26301;42.832;23.918;2022-10-31T16:01:04;20.40;;;6.60;;
40591;SDS011;26301;42.832;23.918;2022-10-31T16:03:32;14.10;;;4.90;;
40591;SDS011;26301;42.832;23.918;2022-10-31T16:05:59;16.08;;;6.80;;
40591;SDS011;26301;42.832;23.918;2022-10-31T16:10:54;21.58;;;8.43;;
40591;SDS011;26301;42.832;23.918;2022-10-31T16:13:28;19.13;;;6.65;;
40591;SDS011;26301;42.832;23.918;2022-10-31T16:15:56;18.63;;;5.88;;
40591;SDS011;26301;42.832;23.918;2022-10-31T16:18:25;14.73;;;4.18;;
40591;SDS011;26301;42.832;23.918;2022-10-31T16:20:53;7.32;;;3.15;;
40591;SDS011;26301;42.832;23.918;2022-10-31T16:23:21;11.25;;;2.70;;
40591;SDS011;26301;42.832;23.918;2022-10-31T16:25:49;7.55;;;3.00;;
40591;SDS011;26301;42.832;23.918;2022-10-31T16:28:17;10.45;;;3.65;;
40591;SDS011;26301;42.832;23.918;2022-10-31T16:33:33;8.13;;;3.42;;
40591;SDS011;26301;42.832;23.918;2022-10-31T16:36:27;9.73;;;3.42;;
40591;SDS011;26301;42.832;23.918;2022-10-31T16:38:53;13.20;;;3.25;;
40591;SDS011;26301;42.832;23.918;2022-10-31T16:41:21;5.93;;;2.42;;
40591;SDS011;26301;42.832;23.918;2022-10-31T16:43:48;10.77;;;2.83;;
40591;SDS011;26301;42.832;23.918;2022-10-31T16:46:15;6.68;;;2.95;;
40591;SDS011;26301;42.832;23.918;2022-10-31T16:48:49;8.18;;;2.60;;
40591;SDS011;26301;42.832;23.918;2022-10-31T16:51:16;8.95;;;3.45;;
40591;SDS011;26301;42.832;23.918;2022-10-31T16:53:42;11.32;;;3.97;;
40591;SDS011;26301;42.832;23.918;2022-10-31T16:56:12;14.88;;;4.05;;
40591;SDS011;26301;42.832;23.918;2022-10-31T16:58:41;9.90;;;4.57;;
40591;SDS011;26301;42.832;23.918;2022-10-31T17:01:08;11.82;;;3.83;;
40591;SDS011;26301;42.832;23.918;2022-10-31T17:03:34;7.20;;;2.60;;
40591;SDS011;26301;42.832;23.918;2022-10-31T17:06:00;6.63;;;2.03;;
40591;SDS011;26301;42.832;23.918;2022-10-31T17:08:26;6.32;;;2.53;;
40591;SDS011;26301;42.832;23.918;2022-10-31T17:10:53;7.47;;;2.03;;
40591;SDS011;26301;42.832;23.918;2022-10-31T17:13:21;5.15;;;2.78;;
40591;SDS011;26301;42.832;23.918;2022-10-31T17:15:50;7.88;;;2.00;;
40591;SDS011;26301;42.832;23.918;2022-10-31T17:18:17;6.63;;;2.25;;
40591;SDS011;26301;42.832;23.918;2022-10-31T17:20:43;6.05;;;2.60;;
40591;SDS011;26301;42.832;23.918;2022-10-31T17:23:10;8.65;;;3.00;;
40591;SDS011;26301;42.832;23.918;2022-10-31T17:25:37;6.88;;;3.53;;